sensor_id;sensor_type;location;lat;lon;timestamp;P1;durP1;ratioP1;P2;durP2;ratioP2
22357;SDS011;11346;50.150;8.150;2023-07-20T00:02:06;7.27;;;2.70;;
22357;SDS011;11346;50.150;8.150;2023-07-20T00:04:33;8.40;;;2.97;;
22357;SDS011;11346;50.150;8.150;2023-07-20T00:07:00;10.07;;;3.27;;
22357;SDS011;11346;50.150;8.150;2023-07-20T00:09:27;6.63;;;2.73;;
22357;SDS011;11346;50.150;8.150;2023-07-20T00:11:56;4.10;;;2.60;;
22357;SDS011;11346;50.150;8.150;2023-07-20T00:14:24;8.73;;;3.17;;
22357;SDS011;11346;50.150;8.150;2023-07-20T00:16:51;6.33;;;2.77;;
22357;SDS011;11346;50.150;8.150;2023-07-20T00:19:21;4.67;;;2.80;;
22357;SDS011;11346;50.150;8.150;2023-07-20T00:21:48;9.90;;;3.30;;
22357;SDS011;11346;50.150;8.150;2023-07-20T00:24:15;4.17;;;2.77;;
22357;SDS011;11346;50.150;8.150;2023-07-20T00:26:43;8.90;;;2.80;;
22357;SDS011;11346;50.150;8.150;2023-07-20T00:29:11;4.13;;;2.53;;
22357;SDS011;11346;50.150;8.150;2023-07-20T00:31:38;3.73;;;2.47;;
22357;SDS011;11346;50.150;8.150;2023-07-20T00:34:05;4.00;;;2.77;;
22357;SDS011;11346;50.150;8.150;2023-07-20T00:36:32;5.13;;;2.47;;
22357;SDS011;11346;50.150;8.150;2023-07-20T00:38:59;5.43;;;3.10;;
22357;SDS011;11346;50.150;8.150;2023-07-20T00:41:26;4.73;;;2.73;;
22357;SDS011;11346;50.150;8.150;2023-07-20T00:43:54;9.13;;;2.73;;
22357;SDS011;11346;50.150;8.150;2023-07-20T00:46:23;3.97;;;2.57;;
22357;SDS011;11346;50.150;8.150;2023-07-20T00:48:51;5.40;;;2.47;;
22357;SDS011;11346;50.150;8.150;2023-07-20T00:51:18;8.80;;;3.33;;
22357;SDS011;11346;50.150;8.150;2023-07-20T00:53:45;6.80;;;3.40;;
22357;SDS011;11346;50.150;8.150;2023-07-20T00:56:13;7.83;;;2.80;;
22357;SDS011;11346;50.150;8.150;2023-07-20T00:58:40;8.60;;;2.80;;
22357;SDS011;11346;50.150;8.150;2023-07-20T01:01:07;3.10;;;2.73;;
22357;SDS011;11346;50.150;8.150;2023-07-20T01:03:36;5.23;;;2.90;;
22357;SDS011;11346;50.150;8.150;2023-07-20T01:06:11;7.63;;;2.97;;
22357;SDS011;11346;50.150;8.150;2023-07-20T01:08:43;5.60;;;2.80;;
22357;SDS011;11346;50.150;8.150;2023-07-20T01:11:12;6.07;;;2.90;;
22357;SDS011;11346;50.150;8.150;2023-07-20T01:13:42;6.20;;;2.80;;
22357;SDS011;11346;50.150;8.150;2023-07-20T01:16:10;5.40;;;2.73;;
22357;SDS011;11346;50.150;8.150;2023-07-20T01:18:38;4.97;;;2.80;;
22357;SDS011;11346;50.150;8.150;2023-07-20T01:21:06;3.43;;;2.73;;
22357;SDS011;11346;50.150;8.150;2023-07-20T01:23:48;5.53;;;2.80;;
22357;SDS011;11346;50.150;8.150;2023-07-20T01:29:11;5.23;;;2.90;;
22357;SDS011;11346;50.150;8.150;2023-07-20T01:31:46;5.07;;;2.90;;
22357;SDS011;11346;50.150;8.150;2023-07-20T01:34:14;4.37;;;2.67;;
22357;SDS011;11346;50.150;8.150;2023-07-20T01:36:44;10.27;;;3.60;;
22357;SDS011;11346;50.150;8.150;2023-07-20T01:39:14;5.37;;;2.70;;
22357;SDS011;11346;50.150;8.150;2023-07-20T01:41:41;4.43;;;3.00;;
22357;SDS011;11346;50.150;8.150;2023-07-20T01:44:08;8.47;;;2.97;;
22357;SDS011;11346;50.150;8.150;2023-07-20T01:46:35;5.70;;;2.93;;
22357;SDS011;11346;50.150;8.150;2023-07-20T01:49:04;5.33;;;2.83;;
22357;SDS011;11346;50.150;8.150;2023-07-20T01:51:31;8.57;;;2.93;;
22357;SDS011;11346;50.150;8.150;2023-07-20T01:53:58;3.37;;;2.87;;
22357;SDS011;11346;50.150;8.150;2023-07-20T01:56:26;5.87;;;2.87;;
22357;SDS011;11346;50.150;8.150;2023-07-20T01:58:53;4.47;;;2.50;;
22357;SDS011;11346;50.150;8.150;2023-07-20T02:01:20;11.07;;;3.03;;
22357;SDS011;11346;50.150;8.150;2023-07-20T02:03:47;5.20;;;2.80;;
22357;SDS011;11346;50.150;8.150;2023-07-20T02:06:16;6.50;;;3.20;;
22357;SDS011;11346;50.150;8.150;2023-07-20T02:08:43;6.17;;;2.80;;
22357;SDS011;11346;50.150;8.150;2023-07-20T02:11:10;3.10;;;2.30;;
22357;SDS011;11346;50.150;8.150;2023-07-20T02:13:37;3.73;;;2.60;;
22357;SDS011;11346;50.150;8.150;2023-07-20T02:16:04;6.47;;;3.00;;
22357;SDS011;11346;50.150;8.150;2023-07-20T02:18:31;5.20;;;3.10;;
22357;SDS011;11346;50.150;8.150;2023-07-20T02:21:00;3.60;;;2.87;;
22357;SDS011;11346;50.150;8.150;2023-07-20T02:23:29;6.30;;;3.10;;
22357;SDS011;11346;50.150;8.150;2023-07-20T02:25:56;6.37;;;2.80;;
22357;SDS011;11346;50.150;8.150;2023-07-20T02:28:24;5.70;;;3.20;;
22357;SDS011;11346;50.150;8.150;2023-07-20T02:30:51;7.23;;;2.83;;
22357;SDS011;11346;50.150;8.150;2023-07-20T02:33:18;6.37;;;3.63;;
22357;SDS011;11346;50.150;8.150;2023-07-20T02:35:46;8.57;;;2.80;;
22357;SDS011;11346;50.150;8.150;2023-07-20T02:38:14;3.67;;;2.50;;
22357;SDS011;11346;50.150;8.150;2023-07-20T02:40:42;4.13;;;2.80;;
22357;SDS011;11346;50.150;8.150;2023-07-20T02:43:09;10.10;;;3.27;;
22357;SDS011;11346;50.150;8.150;2023-07-20T02:45:39;7.87;;;3.00;;
22357;SDS011;11346;50.150;8.150;2023-07-20T02:48:06;3.03;;;2.73;;
22357;SDS011;11346;50.150;8.150;2023-07-20T02:50:34;4.00;;;2.87;;
22357;SDS011;11346;50.150;8.150;2023-07-20T02:53:01;9.97;;;3.00;;
22357;SDS011;11346;50.150;8.150;2023-07-20T02:55:28;4.23;;;2.60;;
22357;SDS011;11346;50.150;8.150;2023-07-20T02:57:57;4.03;;;2.67;;
22357;SDS011;11346;50.150;8.150;2023-07-20T03:00:24;5.90;;;2.90;;
22357;SDS011;11346;50.150;8.150;2023-07-20T03:02:52;6.77;;;3.53;;
22357;SDS011;11346;50.150;8.150;2023-07-20T03:05:21;7.57;;;2.77;;
22357;SDS011;11346;50.150;8.150;2023-07-20T03:07:50;4.70;;;3.03;;
22357;SDS011;11346;50.150;8.150;2023-07-20T03:10:17;6.33;;;3.53;;
22357;SDS011;11346;50.150;8.150;2023-07-20T03:12:45;4.57;;;2.97;;
22357;SDS011;11346;50.150;8.150;2023-07-20T03:15:13;8.30;;;2.90;;
22357;SDS011;11346;50.150;8.150;2023-07-20T03:17:41;4.40;;;3.00;;
22357;SDS011;11346;50.150;8.150;2023-07-20T03:20:08;10.40;;;3.67;;
22357;SDS011;11346;50.150;8.150;2023-07-20T03:22:36;5.50;;;2.80;;
22357;SDS011;11346;50.150;8.150;2023-07-20T03:25:03;5.80;;;3.23;;
22357;SDS011;11346;50.150;8.150;2023-07-20T03:27:30;6.50;;;3.03;;
22357;SDS011;11346;50.150;8.150;2023-07-20T03:29:58;7.97;;;2.90;;
22357;SDS011;11346;50.150;8.150;2023-07-20T03:32:26;5.47;;;2.67;;
22357;SDS011;11346;50.150;8.150;2023-07-20T03:34:54;3.93;;;2.70;;
22357;SDS011;11346;50.150;8.150;2023-07-20T03:37:21;6.23;;;2.90;;
22357;SDS011;11346;50.150;8.150;2023-07-20T03:39:48;4.97;;;3.20;;
22357;SDS011;11346;50.150;8.150;2023-07-20T03:42:16;7.40;;;3.40;;
22357;SDS011;11346;50.150;8.150;2023-07-20T03:44:43;4.50;;;3.07;;
22357;SDS011;11346;50.150;8.150;2023-07-20T03:47:11;5.67;;;3.30;;
22357;SDS011;11346;50.150;8.150;2023-07-20T03:49:39;4.67;;;3.07;;
22357;SDS011;11346;50.150;8.150;2023-07-20T03:52:07;7.70;;;3.23;;
22357;SDS011;11346;50.150;8.150;2023-07-20T03:54:34;4.70;;;3.10;;
22357;SDS011;11346;50.150;8.150;2023-07-20T03:57:01;4.37;;;3.40;;
22357;SDS011;11346;50.150;8.150;2023-07-20T03:59:28;4.87;;;3.10;;
22357;SDS011;11346;50.150;8.150;2023-07-20T04:01:56;4.80;;;3.03;;
22357;SDS011;11346;50.150;8.150;2023-07-20T04:04:23;3.97;;;3.20;;
22357;SDS011;11346;50.150;8.150;2023-07-20T04:06:55;6.90;;;3.20;;
22357;SDS011;11346;50.150;8.150;2023-07-20T04:09:22;6.23;;;3.37;;
22357;SDS011;11346;50.150;8.150;2023-07-20T04:11:49;6.03;;;3.50;;
22357;SDS011;11346;50.150;8.150;2023-07-20T04:14:16;4.60;;;3.00;;
22357;SDS011;11346;50.150;8.150;2023-07-20T04:16:45;10.80;;;3.70;;
22357;SDS011;11346;50.150;8.150;2023-07-20T04:19:12;5.80;;;2.70;;
22357;SDS011;11346;50.150;8.150;2023-07-20T04:21:40;10.83;;;3.67;;
22357;SDS011;11346;50.150;8.150;2023-07-20T04:24:08;5.03;;;3.10;;
22357;SDS011;11346;50.150;8.150;2023-07-20T04:26:36;5.73;;;3.97;;
22357;SDS011;11346;50.150;8.150;2023-07-20T04:29:03;6.93;;;3.67;;
22357;SDS011;11346;50.150;8.150;2023-07-20T04:31:30;6.83;;;3.27;;
22357;SDS011;11346;50.150;8.150;2023-07-20T04:33:59;7.67;;;3.57;;
22357;SDS011;11346;50.150;8.150;2023-07-20T04:36:26;6.93;;;3.37;;
22357;SDS011;11346;50.150;8.150;2023-07-20T04:38:53;5.33;;;3.20;;
22357;SDS011;11346;50.150;8.150;2023-07-20T04:41:22;5.67;;;3.27;;
22357;SDS011;11346;50.150;8.150;2023-07-20T04:43:50;5.37;;;3.40;;
22357;SDS011;11346;50.150;8.150;2023-07-20T04:46:17;4.90;;;3.13;;
22357;SDS011;11346;50.150;8.150;2023-07-20T04:48:46;5.27;;;3.23;;
22357;SDS011;11346;50.150;8.150;2023-07-20T04:51:13;8.57;;;3.30;;
22357;SDS011;11346;50.150;8.150;2023-07-20T04:53:42;3.80;;;3.20;;
22357;SDS011;11346;50.150;8.150;2023-07-20T04:56:09;7.27;;;3.27;;
22357;SDS011;11346;50.150;8.150;2023-07-20T04:58:38;6.93;;;3.67;;
22357;SDS011;11346;50.150;8.150;2023-07-20T05:01:05;8.00;;;3.50;;
22357;SDS011;11346;50.150;8.150;2023-07-20T05:03:32;6.77;;;3.10;;
22357;SDS011;11346;50.150;8.150;2023-07-20T05:05:59;7.67;;;3.60;;
22357;SDS011;11346;50.150;8.150;2023-07-20T05:08:26;4.27;;;3.30;;
22357;SDS011;11346;50.150;8.150;2023-07-20T05:10:54;5.17;;;3.10;;
22357;SDS011;11346;50.150;8.150;2023-07-20T05:13:21;6.93;;;3.70;;
22357;SDS011;11346;50.150;8.150;2023-07-20T05:15:52;6.27;;;3.63;;
22357;SDS011;11346;50.150;8.150;2023-07-20T05:18:19;5.37;;;3.40;;
22357;SDS011;11346;50.150;8.150;2023-07-20T05:20:46;7.70;;;3.80;;
22357;SDS011;11346;50.150;8.150;2023-07-20T05:23:13;7.57;;;3.33;;
22357;SDS011;11346;50.150;8.150;2023-07-20T05:25:41;10.03;;;3.60;;
22357;SDS011;11346;50.150;8.150;2023-07-20T05:28:08;6.83;;;3.17;;
22357;SDS011;11346;50.150;8.150;2023-07-20T05:30:35;6.13;;;3.33;;
22357;SDS011;11346;50.150;8.150;2023-07-20T05:33:04;7.23;;;2.97;;
22357;SDS011;11346;50.150;8.150;2023-07-20T05:35:31;5.60;;;3.40;;
22357;SDS011;11346;50.150;8.150;2023-07-20T05:37:58;4.70;;;2.97;;
22357;SDS011;11346;50.150;8.150;2023-07-20T05:40:25;4.70;;;2.90;;
22357;SDS011;11346;50.150;8.150;2023-07-20T05:42:53;4.83;;;2.90;;
22357;SDS011;11346;50.150;8.150;2023-07-20T05:45:22;6.70;;;3.13;;
22357;SDS011;11346;50.150;8.150;2023-07-20T05:47:49;3.40;;;2.67;;
22357;SDS011;11346;50.150;8.150;2023-07-20T05:50:17;4.40;;;2.60;;
22357;SDS011;11346;50.150;8.150;2023-07-20T05:52:45;5.47;;;2.70;;
22357;SDS011;11346;50.150;8.150;2023-07-20T05:55:12;4.73;;;2.60;;
22357;SDS011;11346;50.150;8.150;2023-07-20T05:57:40;7.77;;;2.87;;
22357;SDS011;11346;50.150;8.150;2023-07-20T06:00:08;5.13;;;2.73;;
22357;SDS011;11346;50.150;8.150;2023-07-20T06:02:37;4.17;;;2.60;;
22357;SDS011;11346;50.150;8.150;2023-07-20T06:05:05;3.53;;;2.90;;
22357;SDS011;11346;50.150;8.150;2023-07-20T06:07:35;4.13;;;2.77;;
22357;SDS011;11346;50.150;8.150;2023-07-20T06:10:03;3.50;;;3.03;;
22357;SDS011;11346;50.150;8.150;2023-07-20T06:12:30;5.77;;;3.00;;
22357;SDS011;11346;50.150;8.150;2023-07-20T06:15:01;5.10;;;2.90;;
22357;SDS011;11346;50.150;8.150;2023-07-20T06:17:28;11.00;;;3.03;;
22357;SDS011;11346;50.150;8.150;2023-07-20T06:19:55;5.40;;;2.97;;
22357;SDS011;11346;50.150;8.150;2023-07-20T06:22:23;6.13;;;3.03;;
22357;SDS011;11346;50.150;8.150;2023-07-20T06:24:51;8.20;;;3.20;;
22357;SDS011;11346;50.150;8.150;2023-07-20T06:27:18;9.27;;;3.10;;
22357;SDS011;11346;50.150;8.150;2023-07-20T06:29:45;5.20;;;3.50;;
22357;SDS011;11346;50.150;8.150;2023-07-20T06:32:13;6.03;;;2.93;;
22357;SDS011;11346;50.150;8.150;2023-07-20T06:34:40;6.60;;;3.70;;
22357;SDS011;11346;50.150;8.150;2023-07-20T06:37:07;9.23;;;3.80;;
22357;SDS011;11346;50.150;8.150;2023-07-20T06:39:34;5.33;;;3.20;;
22357;SDS011;11346;50.150;8.150;2023-07-20T06:42:03;8.10;;;3.30;;
22357;SDS011;11346;50.150;8.150;2023-07-20T06:44:31;5.23;;;3.20;;
22357;SDS011;11346;50.150;8.150;2023-07-20T06:46:58;6.47;;;3.87;;
22357;SDS011;11346;50.150;8.150;2023-07-20T06:49:26;5.63;;;3.63;;
22357;SDS011;11346;50.150;8.150;2023-07-20T06:51:53;8.27;;;3.57;;
22357;SDS011;11346;50.150;8.150;2023-07-20T06:54:20;5.93;;;3.60;;
22357;SDS011;11346;50.150;8.150;2023-07-20T06:56:47;5.30;;;3.20;;
22357;SDS011;11346;50.150;8.150;2023-07-20T06:59:16;4.13;;;3.30;;
22357;SDS011;11346;50.150;8.150;2023-07-20T07:01:43;9.10;;;3.50;;
22357;SDS011;11346;50.150;8.150;2023-07-20T07:04:10;5.30;;;3.23;;
22357;SDS011;11346;50.150;8.150;2023-07-20T07:06:37;6.93;;;3.40;;
22357;SDS011;11346;50.150;8.150;2023-07-20T07:09:04;5.70;;;3.20;;
22357;SDS011;11346;50.150;8.150;2023-07-20T07:11:31;7.23;;;3.00;;
22357;SDS011;11346;50.150;8.150;2023-07-20T07:13:58;5.40;;;2.90;;
22357;SDS011;11346;50.150;8.150;2023-07-20T07:16:26;6.53;;;2.53;;
22357;SDS011;11346;50.150;8.150;2023-07-20T07:18:53;3.97;;;3.00;;
22357;SDS011;11346;50.150;8.150;2023-07-20T07:21:20;4.50;;;3.03;;
22357;SDS011;11346;50.150;8.150;2023-07-20T07:23:47;5.73;;;3.03;;
22357;SDS011;11346;50.150;8.150;2023-07-20T07:26:14;5.80;;;2.80;;
22357;SDS011;11346;50.150;8.150;2023-07-20T07:28:42;4.47;;;2.77;;
22357;SDS011;11346;50.150;8.150;2023-07-20T07:31:09;5.23;;;2.93;;
22357;SDS011;11346;50.150;8.150;2023-07-20T07:33:37;3.50;;;2.90;;
22357;SDS011;11346;50.150;8.150;2023-07-20T07:36:04;6.23;;;2.70;;
22357;SDS011;11346;50.150;8.150;2023-07-20T07:38:31;4.33;;;2.90;;
22357;SDS011;11346;50.150;8.150;2023-07-20T07:40:58;4.77;;;2.97;;
22357;SDS011;11346;50.150;8.150;2023-07-20T07:43:25;3.50;;;2.90;;
22357;SDS011;11346;50.150;8.150;2023-07-20T07:45:53;6.83;;;2.80;;
22357;SDS011;11346;50.150;8.150;2023-07-20T07:48:22;6.67;;;3.00;;
22357;SDS011;11346;50.150;8.150;2023-07-20T07:50:51;5.87;;;3.13;;
22357;SDS011;11346;50.150;8.150;2023-07-20T07:53:18;5.60;;;3.10;;
22357;SDS011;11346;50.150;8.150;2023-07-20T07:55:47;3.43;;;2.90;;
22357;SDS011;11346;50.150;8.150;2023-07-20T07:58:14;8.73;;;3.10;;
22357;SDS011;11346;50.150;8.150;2023-07-20T08:00:41;6.03;;;3.03;;
22357;SDS011;11346;50.150;8.150;2023-07-20T08:03:08;6.10;;;3.43;;
22357;SDS011;11346;50.150;8.150;2023-07-20T08:05:35;7.60;;;2.90;;
22357;SDS011;11346;50.150;8.150;2023-07-20T08:08:04;5.80;;;3.30;;
22357;SDS011;11346;50.150;8.150;2023-07-20T08:10:31;7.43;;;3.47;;
22357;SDS011;11346;50.150;8.150;2023-07-20T08:12:58;3.83;;;3.00;;
22357;SDS011;11346;50.150;8.150;2023-07-20T08:15:25;4.63;;;3.10;;
22357;SDS011;11346;50.150;8.150;2023-07-20T08:17:52;4.77;;;3.13;;
22357;SDS011;11346;50.150;8.150;2023-07-20T08:20:19;10.80;;;3.57;;
22357;SDS011;11346;50.150;8.150;2023-07-20T08:22:51;5.63;;;3.00;;
22357;SDS011;11346;50.150;8.150;2023-07-20T08:25:20;5.97;;;3.27;;
22357;SDS011;11346;50.150;8.150;2023-07-20T08:27:47;8.77;;;3.13;;
22357;SDS011;11346;50.150;8.150;2023-07-20T08:30:14;7.77;;;3.20;;
22357;SDS011;11346;50.150;8.150;2023-07-20T08:32:41;3.97;;;3.07;;
22357;SDS011;11346;50.150;8.150;2023-07-20T08:35:08;4.43;;;2.77;;
22357;SDS011;11346;50.150;8.150;2023-07-20T08:37:35;5.93;;;2.93;;
22357;SDS011;11346;50.150;8.150;2023-07-20T08:40:02;4.53;;;2.87;;
22357;SDS011;11346;50.150;8.150;2023-07-20T08:42:34;4.67;;;3.10;;
22357;SDS011;11346;50.150;8.150;2023-07-20T08:45:02;3.40;;;3.10;;
22357;SDS011;11346;50.150;8.150;2023-07-20T08:47:33;6.83;;;3.20;;
22357;SDS011;11346;50.150;8.150;2023-07-20T08:50:00;9.07;;;3.00;;
22357;SDS011;11346;50.150;8.150;2023-07-20T08:52:31;4.07;;;2.93;;
22357;SDS011;11346;50.150;8.150;2023-07-20T08:54:59;4.10;;;3.00;;
22357;SDS011;11346;50.150;8.150;2023-07-20T08:57:28;5.03;;;3.03;;
22357;SDS011;11346;50.150;8.150;2023-07-20T08:59:56;4.07;;;2.83;;
22357;SDS011;11346;50.150;8.150;2023-07-20T09:02:24;4.47;;;3.27;;
22357;SDS011;11346;50.150;8.150;2023-07-20T09:04:52;4.90;;;2.97;;
22357;SDS011;11346;50.150;8.150;2023-07-20T09:07:19;5.20;;;2.80;;
22357;SDS011;11346;50.150;8.150;2023-07-20T09:09:46;3.90;;;2.90;;
22357;SDS011;11346;50.150;8.150;2023-07-20T09:12:13;3.50;;;2.97;;
22357;SDS011;11346;50.150;8.150;2023-07-20T09:14:42;4.50;;;2.70;;
22357;SDS011;11346;50.150;8.150;2023-07-20T09:17:13;5.60;;;2.70;;
22357;SDS011;11346;50.150;8.150;2023-07-20T09:19:45;2.63;;;2.27;;
22357;SDS011;11346;50.150;8.150;2023-07-20T09:22:13;8.30;;;2.33;;
22357;SDS011;11346;50.150;8.150;2023-07-20T09:24:40;4.43;;;2.50;;
22357;SDS011;11346;50.150;8.150;2023-07-20T09:27:07;7.40;;;2.40;;
22357;SDS011;11346;50.150;8.150;2023-07-20T09:29:36;4.57;;;2.50;;
22357;SDS011;11346;50.150;8.150;2023-07-20T09:32:15;4.07;;;2.53;;
22357;SDS011;11346;50.150;8.150;2023-07-20T09:34:44;2.30;;;1.80;;
22357;SDS011;11346;50.150;8.150;2023-07-20T09:37:11;4.30;;;2.07;;
22357;SDS011;11346;50.150;8.150;2023-07-20T09:39:42;2.17;;;1.90;;
22357;SDS011;11346;50.150;8.150;2023-07-20T09:42:10;2.13;;;1.90;;
22357;SDS011;11346;50.150;8.150;2023-07-20T09:44:37;3.23;;;2.10;;
22357;SDS011;11346;50.150;8.150;2023-07-20T09:47:05;2.17;;;1.93;;
22357;SDS011;11346;50.150;8.150;2023-07-20T09:49:34;3.70;;;2.00;;
22357;SDS011;11346;50.150;8.150;2023-07-20T09:52:06;2.30;;;1.97;;
22357;SDS011;11346;50.150;8.150;2023-07-20T09:54:33;5.87;;;2.00;;
22357;SDS011;11346;50.150;8.150;2023-07-20T09:57:00;3.77;;;2.37;;
22357;SDS011;11346;50.150;8.150;2023-07-20T09:59:28;5.83;;;2.30;;
22357;SDS011;11346;50.150;8.150;2023-07-20T10:01:55;2.83;;;1.90;;
22357;SDS011;11346;50.150;8.150;2023-07-20T10:04:25;3.33;;;2.33;;
22357;SDS011;11346;50.150;8.150;2023-07-20T10:06:54;5.03;;;2.57;;
22357;SDS011;11346;50.150;8.150;2023-07-20T10:09:21;7.23;;;2.63;;
22357;SDS011;11346;50.150;8.150;2023-07-20T10:11:50;2.43;;;2.20;;
22357;SDS011;11346;50.150;8.150;2023-07-20T10:14:19;2.60;;;2.10;;
22357;SDS011;11346;50.150;8.150;2023-07-20T10:16:50;6.17;;;2.73;;
22357;SDS011;11346;50.150;8.150;2023-07-20T10:19:19;3.03;;;2.40;;
22357;SDS011;11346;50.150;8.150;2023-07-20T10:21:52;5.07;;;2.60;;
22357;SDS011;11346;50.150;8.150;2023-07-20T10:24:22;2.23;;;2.00;;
22357;SDS011;11346;50.150;8.150;2023-07-20T10:26:49;2.07;;;1.87;;
22357;SDS011;11346;50.150;8.150;2023-07-20T10:29:16;4.47;;;2.30;;
22357;SDS011;11346;50.150;8.150;2023-07-20T10:31:44;3.33;;;2.10;;
22357;SDS011;11346;50.150;8.150;2023-07-20T10:34:11;3.40;;;2.43;;
22357;SDS011;11346;50.150;8.150;2023-07-20T10:36:43;3.80;;;2.53;;
22357;SDS011;11346;50.150;8.150;2023-07-20T10:39:13;3.97;;;2.70;;
22357;SDS011;11346;50.150;8.150;2023-07-20T10:41:49;4.83;;;2.30;;
22357;SDS011;11346;50.150;8.150;2023-07-20T10:44:19;7.93;;;2.50;;
22357;SDS011;11346;50.150;8.150;2023-07-20T10:46:46;4.13;;;2.10;;
22357;SDS011;11346;50.150;8.150;2023-07-20T10:49:13;4.50;;;2.10;;
22357;SDS011;11346;50.150;8.150;2023-07-20T10:51:41;5.23;;;2.03;;
22357;SDS011;11346;50.150;8.150;2023-07-20T10:54:09;4.50;;;2.37;;
22357;SDS011;11346;50.150;8.150;2023-07-20T10:56:36;4.60;;;2.20;;
22357;SDS011;11346;50.150;8.150;2023-07-20T10:59:17;7.13;;;2.00;;
22357;SDS011;11346;50.150;8.150;2023-07-20T11:01:44;4.73;;;2.10;;
22357;SDS011;11346;50.150;8.150;2023-07-20T11:04:12;2.63;;;2.00;;
22357;SDS011;11346;50.150;8.150;2023-07-20T11:06:41;2.40;;;1.67;;
22357;SDS011;11346;50.150;8.150;2023-07-20T11:09:09;1.90;;;1.80;;
22357;SDS011;11346;50.150;8.150;2023-07-20T11:11:40;3.90;;;2.07;;
22357;SDS011;11346;50.150;8.150;2023-07-20T11:14:09;5.43;;;2.40;;
22357;SDS011;11346;50.150;8.150;2023-07-20T11:16:38;4.87;;;2.03;;
22357;SDS011;11346;50.150;8.150;2023-07-20T11:19:06;4.43;;;2.13;;
22357;SDS011;11346;50.150;8.150;2023-07-20T11:21:36;5.33;;;1.90;;
22357;SDS011;11346;50.150;8.150;2023-07-20T11:24:04;3.20;;;2.00;;
22357;SDS011;11346;50.150;8.150;2023-07-20T11:26:39;2.83;;;2.10;;
22357;SDS011;11346;50.150;8.150;2023-07-20T11:29:06;5.63;;;2.30;;
22357;SDS011;11346;50.150;8.150;2023-07-20T11:31:36;2.63;;;1.83;;
22357;SDS011;11346;50.150;8.150;2023-07-20T11:34:03;3.97;;;1.90;;
22357;SDS011;11346;50.150;8.150;2023-07-20T11:36:30;2.40;;;2.03;;
22357;SDS011;11346;50.150;8.150;2023-07-20T11:38:57;3.73;;;2.07;;
22357;SDS011;11346;50.150;8.150;2023-07-20T11:41:25;3.90;;;2.20;;
22357;SDS011;11346;50.150;8.150;2023-07-20T11:43:52;4.37;;;1.80;;
22357;SDS011;11346;50.150;8.150;2023-07-20T11:46:19;2.07;;;1.87;;
22357;SDS011;11346;50.150;8.150;2023-07-20T11:48:47;3.70;;;1.87;;
22357;SDS011;11346;50.150;8.150;2023-07-20T11:51:14;4.73;;;2.10;;
22357;SDS011;11346;50.150;8.150;2023-07-20T11:53:42;4.47;;;2.23;;
22357;SDS011;11346;50.150;8.150;2023-07-20T11:56:09;2.23;;;2.00;;
22357;SDS011;11346;50.150;8.150;2023-07-20T11:58:41;6.90;;;1.80;;
22357;SDS011;11346;50.150;8.150;2023-07-20T12:01:08;6.50;;;1.90;;
22357;SDS011;11346;50.150;8.150;2023-07-20T12:03:36;2.00;;;1.90;;
22357;SDS011;11346;50.150;8.150;2023-07-20T12:06:07;4.63;;;1.70;;
22357;SDS011;11346;50.150;8.150;2023-07-20T12:08:34;4.13;;;2.30;;
22357;SDS011;11346;50.150;8.150;2023-07-20T12:11:04;1.87;;;1.67;;
22357;SDS011;11346;50.150;8.150;2023-07-20T12:13:38;6.27;;;1.97;;
22357;SDS011;11346;50.150;8.150;2023-07-20T12:16:11;2.30;;;2.10;;
22357;SDS011;11346;50.150;8.150;2023-07-20T12:18:39;2.00;;;1.90;;
22357;SDS011;11346;50.150;8.150;2023-07-20T12:21:07;2.20;;;1.90;;
22357;SDS011;11346;50.150;8.150;2023-07-20T12:23:35;2.00;;;1.90;;
22357;SDS011;11346;50.150;8.150;2023-07-20T12:26:03;1.97;;;1.87;;
22357;SDS011;11346;50.150;8.150;2023-07-20T12:28:30;1.80;;;1.70;;
22357;SDS011;11346;50.150;8.150;2023-07-20T12:30:58;4.43;;;2.07;;
22357;SDS011;11346;50.150;8.150;2023-07-20T12:33:25;1.80;;;1.70;;
22357;SDS011;11346;50.150;8.150;2023-07-20T12:35:52;5.40;;;1.80;;
22357;SDS011;11346;50.150;8.150;2023-07-20T12:38:22;3.00;;;1.70;;
22357;SDS011;11346;50.150;8.150;2023-07-20T12:40:49;1.83;;;1.67;;
22357;SDS011;11346;50.150;8.150;2023-07-20T12:43:16;2.50;;;1.50;;
22357;SDS011;11346;50.150;8.150;2023-07-20T12:45:43;2.57;;;1.60;;
22357;SDS011;11346;50.150;8.150;2023-07-20T12:48:10;1.50;;;1.40;;
22357;SDS011;11346;50.150;8.150;2023-07-20T12:50:37;2.20;;;1.80;;
22357;SDS011;11346;50.150;8.150;2023-07-20T12:53:04;2.80;;;1.70;;
22357;SDS011;11346;50.150;8.150;2023-07-20T12:55:33;3.90;;;1.80;;
22357;SDS011;11346;50.150;8.150;2023-07-20T12:58:00;3.30;;;1.80;;
22357;SDS011;11346;50.150;8.150;2023-07-20T13:00:27;2.53;;;1.80;;
22357;SDS011;11346;50.150;8.150;2023-07-20T13:02:54;7.10;;;1.90;;
22357;SDS011;11346;50.150;8.150;2023-07-20T13:05:21;2.33;;;1.70;;
22357;SDS011;11346;50.150;8.150;2023-07-20T13:07:48;1.73;;;1.60;;
22357;SDS011;11346;50.150;8.150;2023-07-20T13:10:15;1.83;;;1.73;;
22357;SDS011;11346;50.150;8.150;2023-07-20T13:12:43;2.00;;;1.90;;
22357;SDS011;11346;50.150;8.150;2023-07-20T13:15:10;3.83;;;1.90;;
22357;SDS011;11346;50.150;8.150;2023-07-20T13:17:38;7.30;;;1.90;;
22357;SDS011;11346;50.150;8.150;2023-07-20T13:20:06;4.00;;;1.90;;
22357;SDS011;11346;50.150;8.150;2023-07-20T13:22:35;3.50;;;1.83;;
22357;SDS011;11346;50.150;8.150;2023-07-20T13:25:02;4.07;;;1.90;;
22357;SDS011;11346;50.150;8.150;2023-07-20T13:27:29;2.00;;;1.80;;
22357;SDS011;11346;50.150;8.150;2023-07-20T13:29:57;3.03;;;1.60;;
22357;SDS011;11346;50.150;8.150;2023-07-20T13:32:25;2.67;;;1.83;;
22357;SDS011;11346;50.150;8.150;2023-07-20T13:34:52;2.77;;;1.70;;
22357;SDS011;11346;50.150;8.150;2023-07-20T13:37:19;3.63;;;1.80;;
22357;SDS011;11346;50.150;8.150;2023-07-20T13:39:47;4.00;;;1.77;;
22357;SDS011;11346;50.150;8.150;2023-07-20T13:42:14;2.50;;;1.67;;
22357;SDS011;11346;50.150;8.150;2023-07-20T13:44:41;2.63;;;1.70;;
22357;SDS011;11346;50.150;8.150;2023-07-20T13:47:09;2.53;;;1.70;;
22357;SDS011;11346;50.150;8.150;2023-07-20T13:49:36;2.40;;;1.70;;
22357;SDS011;11346;50.150;8.150;2023-07-20T13:52:04;2.03;;;1.77;;
22357;SDS011;11346;50.150;8.150;2023-07-20T13:54:31;3.87;;;1.83;;
22357;SDS011;11346;50.150;8.150;2023-07-20T13:56:58;2.37;;;1.90;;
22357;SDS011;11346;50.150;8.150;2023-07-20T13:59:25;2.00;;;1.80;;
22357;SDS011;11346;50.150;8.150;2023-07-20T14:01:52;3.50;;;1.93;;
22357;SDS011;11346;50.150;8.150;2023-07-20T14:04:21;4.03;;;1.90;;
22357;SDS011;11346;50.150;8.150;2023-07-20T14:06:48;3.97;;;1.80;;
22357;SDS011;11346;50.150;8.150;2023-07-20T14:09:15;2.27;;;1.80;;
22357;SDS011;11346;50.150;8.150;2023-07-20T14:11:42;2.73;;;1.73;;
22357;SDS011;11346;50.150;8.150;2023-07-20T14:14:09;4.80;;;2.00;;
22357;SDS011;11346;50.150;8.150;2023-07-20T14:16:36;3.47;;;1.90;;
22357;SDS011;11346;50.150;8.150;2023-07-20T14:19:03;2.60;;;1.90;;
22357;SDS011;11346;50.150;8.150;2023-07-20T14:21:32;5.30;;;1.97;;
22357;SDS011;11346;50.150;8.150;2023-07-20T14:23:59;3.17;;;1.90;;
22357;SDS011;11346;50.150;8.150;2023-07-20T14:26:27;3.63;;;1.87;;
22357;SDS011;11346;50.150;8.150;2023-07-20T14:28:54;2.10;;;1.90;;
22357;SDS011;11346;50.150;8.150;2023-07-20T14:31:21;2.43;;;1.60;;
22357;SDS011;11346;50.150;8.150;2023-07-20T14:33:48;2.47;;;1.80;;
22357;SDS011;11346;50.150;8.150;2023-07-20T14:36:15;1.80;;;1.67;;
22357;SDS011;11346;50.150;8.150;2023-07-20T14:38:44;3.77;;;1.90;;
22357;SDS011;11346;50.150;8.150;2023-07-20T14:41:11;3.70;;;1.70;;
22357;SDS011;11346;50.150;8.150;2023-07-20T14:43:38;4.30;;;1.70;;
22357;SDS011;11346;50.150;8.150;2023-07-20T14:46:05;4.37;;;1.90;;
22357;SDS011;11346;50.150;8.150;2023-07-20T14:48:32;3.43;;;1.80;;
22357;SDS011;11346;50.150;8.150;2023-07-20T14:50:59;2.80;;;1.90;;
22357;SDS011;11346;50.150;8.150;2023-07-20T14:53:26;3.77;;;1.40;;
22357;SDS011;11346;50.150;8.150;2023-07-20T14:55:59;3.77;;;1.60;;